createdAt,value
2019-05-18T00:00:14.872Z,16.60
2019-05-18T00:02:45.540Z,16.60
2019-05-18T00:05:16.543Z,16.60
2019-05-18T00:07:47.033Z,16.60
2019-05-18T00:10:18.780Z,16.60
2019-05-18T00:12:50.339Z,16.50
2019-05-18T00:15:21.453Z,16.50
2019-05-18T00:17:52.147Z,16.40
2019-05-18T00:20:23.287Z,16.40
2019-05-18T00:22:54.066Z,16.30
2019-05-18T00:25:25.505Z,16.40
2019-05-18T00:27:57.777Z,16.30
2019-05-18T03:03:34.186Z,16.30
2019-05-18T03:06:05.108Z,17.90
2019-05-18T03:08:36.130Z,18.00
2019-05-18T03:11:07.449Z,17.80
2019-05-18T03:13:38.711Z,17.70
2019-05-18T03:16:09.381Z,17.60
2019-05-18T03:18:40.546Z,17.70
2019-05-18T03:21:11.892Z,17.50
2019-05-18T03:23:42.959Z,17.60
2019-05-18T03:26:13.595Z,17.60
2019-05-18T03:28:44.451Z,17.70
2019-05-18T03:31:15.213Z,18.00
2019-05-18T03:33:46.489Z,18.10
2019-05-18T03:36:17.012Z,18.00
2019-05-18T03:38:48.667Z,17.80
2019-05-18T03:41:19.202Z,17.70
2019-05-18T03:43:49.693Z,17.80
2019-05-18T05:34:10.871Z,18.20
2019-05-18T05:36:41.424Z,28.00
2019-05-18T05:39:12.443Z,28.10
2019-05-18T05:41:43.117Z,28.30
2019-05-18T05:44:13.915Z,28.70
2019-05-18T05:46:44.669Z,28.30
2019-05-18T05:56:45.837Z,28.30
2019-05-18T05:59:16.387Z,27.30
2019-05-18T06:01:47.319Z,27.10
2019-05-18T06:04:17.855Z,27.30
2019-05-18T06:06:49.374Z,28.20
2019-05-18T06:09:19.957Z,28.00
2019-05-18T06:11:52.117Z,27.80
2019-05-18T06:14:23.982Z,27.80
2019-05-18T06:16:54.986Z,27.90
2019-05-18T06:21:56.244Z,28.30
2019-05-18T06:24:27.139Z,28.30
2019-05-18T06:26:58.070Z,28.20
2019-05-18T06:29:29.082Z,28.80
2019-05-18T06:31:59.827Z,29.80
2019-05-18T06:34:30.462Z,30.20
2019-05-18T06:37:03.785Z,29.60
2019-05-18T06:44:34.813Z,28.50
2019-05-18T06:47:05.296Z,29.30
2019-05-18T06:49:45.012Z,30.10
2019-05-18T06:52:15.540Z,29.20
2019-05-18T06:54:48.882Z,28.70
2019-05-18T06:57:19.475Z,30.20
2019-05-18T06:59:51.131Z,29.70
2019-05-18T07:17:21.966Z,30.20
2019-05-18T07:19:52.699Z,29.00
2019-05-18T07:22:23.998Z,28.40
2019-05-18T07:24:55.756Z,28.10
2019-05-18T07:27:26.527Z,28.60
2019-05-18T07:29:57.581Z,28.40
2019-05-18T07:32:28.826Z,28.40
2019-05-18T07:34:59.423Z,28.70
2019-05-18T07:40:00.403Z,28.30
2019-05-18T07:42:31.332Z,28.60
2019-05-18T07:45:02.682Z,27.60
2019-05-18T07:47:34.343Z,27.80
2019-05-18T07:50:05.470Z,27.80
2019-05-18T07:52:38.391Z,28.00
2019-05-18T07:55:10.536Z,28.50
2019-05-18T08:00:12.921Z,29.20
2019-05-18T08:02:44.379Z,29.90
2019-05-18T08:05:16.563Z,29.50
2019-05-18T08:07:47.071Z,30.00
2019-05-18T08:10:23.588Z,30.00
2019-05-18T08:30:29.009Z,30.20
2019-05-18T08:38:00.318Z,28.20
2019-05-18T08:40:31.678Z,26.80
2019-05-18T08:45:33.051Z,27.10
2019-05-18T08:48:04.076Z,27.50
2019-05-18T08:50:37.015Z,28.00
2019-05-18T08:53:08.755Z,27.70
2019-05-18T08:55:40.414Z,27.60
2019-05-18T08:58:11.465Z,27.50
2019-05-18T09:05:42.876Z,28.40
2019-05-18T09:08:14.073Z,27.20
2019-05-18T09:10:44.796Z,27.00
2019-05-18T09:13:15.780Z,27.00
2019-05-18T09:15:46.695Z,27.40
2019-05-18T09:18:17.843Z,27.60
2019-05-18T09:26:30.586Z,26.90
2019-05-18T09:31:31.856Z,27.10
2019-05-18T09:34:02.526Z,27.00
2019-05-18T09:36:35.044Z,27.50
2019-05-18T09:39:07.490Z,27.90
2019-05-18T09:41:38.637Z,27.30
2019-05-18T09:44:10.212Z,27.00
2019-05-18T09:46:41.641Z,27.20
2019-05-18T09:49:13.195Z,26.80
2019-05-18T09:51:44.701Z,27.10
2019-05-18T09:54:15.758Z,27.10
2019-05-18T09:56:46.828Z,27.20
2019-05-18T09:59:18.662Z,27.60
2019-05-18T10:01:49.503Z,27.70
2019-05-18T10:06:52.044Z,27.60
2019-05-18T10:11:53.755Z,27.00
2019-05-18T10:14:24.534Z,26.60
2019-05-18T10:19:25.932Z,26.50
2019-05-18T10:21:57.450Z,26.20
2019-05-18T10:24:28.159Z,25.90
2019-05-18T10:27:05.507Z,25.60
2019-05-18T10:29:36.846Z,25.90
2019-05-18T10:42:10.796Z,26.20
2019-05-18T10:44:42.719Z,26.10
2019-05-18T11:00:12.656Z,26.10
2019-05-18T11:02:43.888Z,26.30
2019-05-18T11:49:33.314Z,26.30
2019-05-18T11:52:05.713Z,25.80
2019-05-18T11:54:36.674Z,25.70
2019-05-18T11:57:07.308Z,25.60
2019-05-18T12:37:33.540Z,25.70
2019-05-18T12:40:05.173Z,25.70
2019-05-18T13:05:22.460Z,25.70
2019-05-18T13:10:23.901Z,26.10
2019-05-18T14:40:36.703Z,26.10
2019-05-18T14:43:07.607Z,26.20
2019-05-18T14:45:38.403Z,26.10
2019-05-18T15:43:15.194Z,26.10
2019-05-18T15:45:45.821Z,25.80
2019-05-18T15:48:16.567Z,25.80
2019-05-18T15:53:17.489Z,25.80
2019-05-18T15:55:49.240Z,25.70
2019-05-18T15:58:20.276Z,25.70
2019-05-18T16:00:51.135Z,25.70
2019-05-18T16:08:22.462Z,25.60
2019-05-18T16:10:53.300Z,25.60
2019-05-18T16:13:25.174Z,25.50
2019-05-18T16:15:56.744Z,25.50
2019-05-18T16:18:28.115Z,25.50
2019-05-18T16:20:59.086Z,25.50
2019-05-18T17:14:28.401Z,25.50
2019-05-18T17:16:59.351Z,24.70
